sensor_id;sensor_type;location;lat;lon;timestamp;P1;durP1;ratioP1;P2;durP2;ratioP2
43817;SDS011;29868;47.360;18.984;2023-05-27T00:01:25;10.60;;;7.18;;
43817;SDS011;29868;47.360;18.984;2023-05-27T00:03:51;9.57;;;6.78;;
43817;SDS011;29868;47.360;18.984;2023-05-27T00:06:16;9.85;;;6.95;;
43817;SDS011;29868;47.360;18.984;2023-05-27T00:08:42;8.88;;;7.13;;
43817;SDS011;29868;47.360;18.984;2023-05-27T00:11:07;10.73;;;7.05;;
43817;SDS011;29868;47.360;18.984;2023-05-27T00:13:32;9.90;;;7.32;;
43817;SDS011;29868;47.360;18.984;2023-05-27T00:15:58;9.68;;;7.70;;
43817;SDS011;29868;47.360;18.984;2023-05-27T00:18:23;10.13;;;6.90;;
43817;SDS011;29868;47.360;18.984;2023-05-27T00:20:49;9.18;;;7.20;;
43817;SDS011;29868;47.360;18.984;2023-05-27T00:23:14;11.27;;;7.47;;
43817;SDS011;29868;47.360;18.984;2023-05-27T00:25:40;11.02;;;7.35;;
43817;SDS011;29868;47.360;18.984;2023-05-27T00:28:05;9.65;;;7.55;;
43817;SDS011;29868;47.360;18.984;2023-05-27T00:30:31;11.57;;;8.40;;
43817;SDS011;29868;47.360;18.984;2023-05-27T00:32:56;11.10;;;8.02;;
43817;SDS011;29868;47.360;18.984;2023-05-27T00:35:22;12.80;;;8.32;;
43817;SDS011;29868;47.360;18.984;2023-05-27T00:37:47;10.43;;;8.00;;
43817;SDS011;29868;47.360;18.984;2023-05-27T00:40:14;11.13;;;8.52;;
43817;SDS011;29868;47.360;18.984;2023-05-27T00:42:41;12.20;;;8.20;;
43817;SDS011;29868;47.360;18.984;2023-05-27T00:45:06;11.25;;;7.95;;
43817;SDS011;29868;47.360;18.984;2023-05-27T00:47:32;10.50;;;8.25;;
43817;SDS011;29868;47.360;18.984;2023-05-27T00:49:59;10.88;;;7.90;;
43817;SDS011;29868;47.360;18.984;2023-05-27T00:52:25;10.60;;;8.13;;
43817;SDS011;29868;47.360;18.984;2023-05-27T00:54:51;10.02;;;7.80;;
43817;SDS011;29868;47.360;18.984;2023-05-27T00:57:18;10.55;;;7.97;;
43817;SDS011;29868;47.360;18.984;2023-05-27T00:59:44;11.68;;;8.30;;
43817;SDS011;29868;47.360;18.984;2023-05-27T01:02:10;11.00;;;8.07;;
43817;SDS011;29868;47.360;18.984;2023-05-27T01:04:36;11.82;;;8.30;;
43817;SDS011;29868;47.360;18.984;2023-05-27T01:07:03;12.15;;;8.43;;
43817;SDS011;29868;47.360;18.984;2023-05-27T01:13:00;11.95;;;7.70;;
43817;SDS011;29868;47.360;18.984;2023-05-27T01:15:31;12.38;;;8.65;;
43817;SDS011;29868;47.360;18.984;2023-05-27T01:17:59;12.60;;;8.63;;
43817;SDS011;29868;47.360;18.984;2023-05-27T01:20:28;11.55;;;8.20;;
43817;SDS011;29868;47.360;18.984;2023-05-27T01:22:54;11.40;;;8.50;;
43817;SDS011;29868;47.360;18.984;2023-05-27T01:25:22;11.68;;;7.95;;
43817;SDS011;29868;47.360;18.984;2023-05-27T01:27:48;12.38;;;8.07;;
43817;SDS011;29868;47.360;18.984;2023-05-27T01:30:14;11.73;;;8.82;;
43817;SDS011;29868;47.360;18.984;2023-05-27T01:32:48;11.57;;;8.45;;
43817;SDS011;29868;47.360;18.984;2023-05-27T01:35:35;12.98;;;9.07;;
43817;SDS011;29868;47.360;18.984;2023-05-27T01:38:04;10.98;;;8.55;;
43817;SDS011;29868;47.360;18.984;2023-05-27T01:40:34;11.43;;;8.65;;
43817;SDS011;29868;47.360;18.984;2023-05-27T01:43:00;11.70;;;9.15;;
43817;SDS011;29868;47.360;18.984;2023-05-27T01:45:26;14.68;;;9.15;;
43817;SDS011;29868;47.360;18.984;2023-05-27T01:47:52;13.75;;;9.38;;
43817;SDS011;29868;47.360;18.984;2023-05-27T01:50:17;12.15;;;9.00;;
43817;SDS011;29868;47.360;18.984;2023-05-27T01:52:43;11.43;;;9.00;;
43817;SDS011;29868;47.360;18.984;2023-05-27T01:55:09;11.98;;;8.77;;
43817;SDS011;29868;47.360;18.984;2023-05-27T01:57:35;15.85;;;8.95;;
43817;SDS011;29868;47.360;18.984;2023-05-27T02:00:00;13.85;;;8.98;;
43817;SDS011;29868;47.360;18.984;2023-05-27T02:02:25;10.90;;;8.32;;
43817;SDS011;29868;47.360;18.984;2023-05-27T02:04:51;14.27;;;9.38;;
43817;SDS011;29868;47.360;18.984;2023-05-27T02:07:16;12.43;;;9.07;;
43817;SDS011;29868;47.360;18.984;2023-05-27T02:09:42;12.05;;;8.93;;
43817;SDS011;29868;47.360;18.984;2023-05-27T02:12:08;11.40;;;9.00;;
43817;SDS011;29868;47.360;18.984;2023-05-27T02:14:34;13.27;;;9.35;;
43817;SDS011;29868;47.360;18.984;2023-05-27T02:17:03;12.05;;;9.15;;
43817;SDS011;29868;47.360;18.984;2023-05-27T02:19:29;11.38;;;8.75;;
43817;SDS011;29868;47.360;18.984;2023-05-27T02:21:54;11.98;;;8.80;;
43817;SDS011;29868;47.360;18.984;2023-05-27T02:24:20;11.77;;;9.00;;
43817;SDS011;29868;47.360;18.984;2023-05-27T02:26:45;12.70;;;9.45;;
43817;SDS011;29868;47.360;18.984;2023-05-27T02:29:11;12.80;;;8.93;;
43817;SDS011;29868;47.360;18.984;2023-05-27T02:31:36;11.20;;;9.20;;
43817;SDS011;29868;47.360;18.984;2023-05-27T02:34:01;13.50;;;9.10;;
43817;SDS011;29868;47.360;18.984;2023-05-27T02:36:27;13.60;;;9.70;;
43817;SDS011;29868;47.360;18.984;2023-05-27T02:38:52;12.57;;;9.32;;
43817;SDS011;29868;47.360;18.984;2023-05-27T02:41:18;11.45;;;9.02;;
43817;SDS011;29868;47.360;18.984;2023-05-27T02:43:43;13.02;;;8.98;;
43817;SDS011;29868;47.360;18.984;2023-05-27T02:46:09;13.07;;;10.05;;
43817;SDS011;29868;47.360;18.984;2023-05-27T02:48:34;12.40;;;10.00;;
43817;SDS011;29868;47.360;18.984;2023-05-27T02:51:00;12.52;;;9.00;;
43817;SDS011;29868;47.360;18.984;2023-05-27T02:53:25;13.20;;;9.23;;
43817;SDS011;29868;47.360;18.984;2023-05-27T02:55:51;13.68;;;9.88;;
43817;SDS011;29868;47.360;18.984;2023-05-27T02:58:17;12.98;;;9.75;;
43817;SDS011;29868;47.360;18.984;2023-05-27T03:00:42;13.77;;;9.88;;
43817;SDS011;29868;47.360;18.984;2023-05-27T03:03:08;13.73;;;10.30;;
43817;SDS011;29868;47.360;18.984;2023-05-27T03:05:34;12.73;;;10.02;;
43817;SDS011;29868;47.360;18.984;2023-05-27T03:08:00;14.23;;;10.05;;
43817;SDS011;29868;47.360;18.984;2023-05-27T03:10:26;15.45;;;10.02;;
43817;SDS011;29868;47.360;18.984;2023-05-27T03:12:53;13.80;;;10.15;;
43817;SDS011;29868;47.360;18.984;2023-05-27T03:15:19;12.27;;;9.90;;
43817;SDS011;29868;47.360;18.984;2023-05-27T03:17:46;14.25;;;10.00;;
43817;SDS011;29868;47.360;18.984;2023-05-27T03:20:12;14.43;;;10.18;;
43817;SDS011;29868;47.360;18.984;2023-05-27T03:22:38;12.50;;;9.82;;
43817;SDS011;29868;47.360;18.984;2023-05-27T03:25:03;13.45;;;9.82;;
43817;SDS011;29868;47.360;18.984;2023-05-27T03:27:29;14.57;;;10.07;;
43817;SDS011;29868;47.360;18.984;2023-05-27T03:29:55;14.45;;;9.90;;
43817;SDS011;29868;47.360;18.984;2023-05-27T03:32:20;14.52;;;10.15;;
43817;SDS011;29868;47.360;18.984;2023-05-27T03:34:46;13.32;;;9.45;;
43817;SDS011;29868;47.360;18.984;2023-05-27T03:37:11;14.32;;;9.88;;
43817;SDS011;29868;47.360;18.984;2023-05-27T03:39:39;14.80;;;10.10;;
43817;SDS011;29868;47.360;18.984;2023-05-27T03:42:05;11.60;;;9.57;;
43817;SDS011;29868;47.360;18.984;2023-05-27T03:44:31;13.07;;;9.75;;
43817;SDS011;29868;47.360;18.984;2023-05-27T03:46:56;12.43;;;9.50;;
43817;SDS011;29868;47.360;18.984;2023-05-27T03:49:22;12.20;;;9.40;;
43817;SDS011;29868;47.360;18.984;2023-05-27T03:51:48;14.88;;;9.88;;
43817;SDS011;29868;47.360;18.984;2023-05-27T03:54:13;13.18;;;9.57;;
43817;SDS011;29868;47.360;18.984;2023-05-27T03:56:39;13.77;;;9.43;;
43817;SDS011;29868;47.360;18.984;2023-05-27T03:59:04;16.15;;;9.45;;
43817;SDS011;29868;47.360;18.984;2023-05-27T04:01:31;11.45;;;9.27;;
43817;SDS011;29868;47.360;18.984;2023-05-27T04:03:57;13.40;;;9.13;;
43817;SDS011;29868;47.360;18.984;2023-05-27T04:06:22;15.52;;;10.05;;
43817;SDS011;29868;47.360;18.984;2023-05-27T04:08:47;15.30;;;9.48;;
43817;SDS011;29868;47.360;18.984;2023-05-27T04:11:13;11.75;;;8.35;;
43817;SDS011;29868;47.360;18.984;2023-05-27T04:13:39;12.05;;;8.82;;
43817;SDS011;29868;47.360;18.984;2023-05-27T04:16:05;14.02;;;8.88;;
43817;SDS011;29868;47.360;18.984;2023-05-27T04:18:30;11.63;;;7.95;;
43817;SDS011;29868;47.360;18.984;2023-05-27T04:20:55;10.45;;;8.27;;
43817;SDS011;29868;47.360;18.984;2023-05-27T04:23:23;11.55;;;7.78;;
43817;SDS011;29868;47.360;18.984;2023-05-27T04:25:48;10.63;;;7.90;;
43817;SDS011;29868;47.360;18.984;2023-05-27T04:28:14;10.18;;;7.53;;
43817;SDS011;29868;47.360;18.984;2023-05-27T04:30:40;12.07;;;7.53;;
43817;SDS011;29868;47.360;18.984;2023-05-27T04:33:06;9.07;;;6.60;;
43817;SDS011;29868;47.360;18.984;2023-05-27T04:35:32;9.10;;;7.07;;
43817;SDS011;29868;47.360;18.984;2023-05-27T04:37:58;12.13;;;7.18;;
43817;SDS011;29868;47.360;18.984;2023-05-27T04:40:26;9.05;;;6.72;;
43817;SDS011;29868;47.360;18.984;2023-05-27T04:42:52;9.30;;;6.82;;
43817;SDS011;29868;47.360;18.984;2023-05-27T04:45:17;10.00;;;7.15;;
43817;SDS011;29868;47.360;18.984;2023-05-27T04:47:43;8.25;;;6.53;;
43817;SDS011;29868;47.360;18.984;2023-05-27T04:50:09;8.55;;;6.55;;
43817;SDS011;29868;47.360;18.984;2023-05-27T04:52:36;8.50;;;6.32;;
43817;SDS011;29868;47.360;18.984;2023-05-27T04:55:07;9.38;;;6.90;;
43817;SDS011;29868;47.360;18.984;2023-05-27T04:57:34;11.98;;;6.40;;
43817;SDS011;29868;47.360;18.984;2023-05-27T05:00:01;8.75;;;6.68;;
43817;SDS011;29868;47.360;18.984;2023-05-27T05:02:28;8.10;;;6.22;;
43817;SDS011;29868;47.360;18.984;2023-05-27T05:05:01;8.77;;;6.55;;
43817;SDS011;29868;47.360;18.984;2023-05-27T05:07:27;8.63;;;6.07;;
43817;SDS011;29868;47.360;18.984;2023-05-27T05:09:53;11.13;;;6.32;;
43817;SDS011;29868;47.360;18.984;2023-05-27T05:12:18;10.20;;;7.20;;
43817;SDS011;29868;47.360;18.984;2023-05-27T05:14:43;9.40;;;5.95;;
43817;SDS011;29868;47.360;18.984;2023-05-27T05:17:09;9.48;;;6.07;;
43817;SDS011;29868;47.360;18.984;2023-05-27T05:19:34;10.07;;;5.85;;
43817;SDS011;29868;47.360;18.984;2023-05-27T05:22:00;8.63;;;6.15;;
43817;SDS011;29868;47.360;18.984;2023-05-27T05:24:25;8.00;;;6.10;;
43817;SDS011;29868;47.360;18.984;2023-05-27T05:26:50;9.35;;;5.80;;
43817;SDS011;29868;47.360;18.984;2023-05-27T05:29:16;10.32;;;6.43;;
43817;SDS011;29868;47.360;18.984;2023-05-27T05:31:41;10.65;;;6.10;;
43817;SDS011;29868;47.360;18.984;2023-05-27T05:34:09;8.48;;;6.15;;
43817;SDS011;29868;47.360;18.984;2023-05-27T05:36:35;8.50;;;5.90;;
43817;SDS011;29868;47.360;18.984;2023-05-27T05:39:01;9.13;;;6.35;;
43817;SDS011;29868;47.360;18.984;2023-05-27T05:41:28;8.18;;;6.35;;
43817;SDS011;29868;47.360;18.984;2023-05-27T05:43:53;8.38;;;6.07;;
43817;SDS011;29868;47.360;18.984;2023-05-27T05:46:19;7.78;;;5.88;;
43817;SDS011;29868;47.360;18.984;2023-05-27T05:48:44;8.38;;;5.70;;
43817;SDS011;29868;47.360;18.984;2023-05-27T05:51:10;9.80;;;5.90;;
43817;SDS011;29868;47.360;18.984;2023-05-27T05:53:35;7.53;;;5.38;;
43817;SDS011;29868;47.360;18.984;2023-05-27T05:56:01;7.80;;;5.57;;
43817;SDS011;29868;47.360;18.984;2023-05-27T05:58:26;7.97;;;5.57;;
43817;SDS011;29868;47.360;18.984;2023-05-27T06:00:53;9.10;;;5.50;;
43817;SDS011;29868;47.360;18.984;2023-05-27T06:03:18;8.48;;;5.45;;
43817;SDS011;29868;47.360;18.984;2023-05-27T06:05:44;9.05;;;5.78;;
43817;SDS011;29868;47.360;18.984;2023-05-27T06:08:10;8.98;;;6.00;;
43817;SDS011;29868;47.360;18.984;2023-05-27T06:10:35;7.85;;;5.80;;
43817;SDS011;29868;47.360;18.984;2023-05-27T06:13:01;9.65;;;5.50;;
43817;SDS011;29868;47.360;18.984;2023-05-27T06:15:26;10.00;;;5.60;;
43817;SDS011;29868;47.360;18.984;2023-05-27T06:17:52;8.95;;;5.70;;
43817;SDS011;29868;47.360;18.984;2023-05-27T06:20:18;8.90;;;5.75;;
43817;SDS011;29868;47.360;18.984;2023-05-27T06:22:44;9.77;;;5.72;;
43817;SDS011;29868;47.360;18.984;2023-05-27T06:25:12;8.55;;;5.68;;
43817;SDS011;29868;47.360;18.984;2023-05-27T06:27:37;9.45;;;6.05;;
43817;SDS011;29868;47.360;18.984;2023-05-27T06:30:03;7.85;;;5.72;;
43817;SDS011;29868;47.360;18.984;2023-05-27T06:32:28;9.13;;;5.90;;
43817;SDS011;29868;47.360;18.984;2023-05-27T06:34:54;9.88;;;6.22;;
43817;SDS011;29868;47.360;18.984;2023-05-27T06:37:20;7.93;;;5.72;;
43817;SDS011;29868;47.360;18.984;2023-05-27T06:39:45;10.18;;;6.95;;
43817;SDS011;29868;47.360;18.984;2023-05-27T06:42:11;9.25;;;5.80;;
43817;SDS011;29868;47.360;18.984;2023-05-27T06:44:36;9.40;;;6.07;;
43817;SDS011;29868;47.360;18.984;2023-05-27T06:47:02;8.40;;;5.40;;
43817;SDS011;29868;47.360;18.984;2023-05-27T06:49:27;7.80;;;5.30;;
43817;SDS011;29868;47.360;18.984;2023-05-27T06:51:53;7.70;;;5.90;;
43817;SDS011;29868;47.360;18.984;2023-05-27T06:54:19;8.63;;;5.47;;
43817;SDS011;29868;47.360;18.984;2023-05-27T06:56:44;11.27;;;5.70;;
43817;SDS011;29868;47.360;18.984;2023-05-27T06:59:09;8.75;;;5.50;;
43817;SDS011;29868;47.360;18.984;2023-05-27T07:01:35;9.25;;;5.20;;
43817;SDS011;29868;47.360;18.984;2023-05-27T07:04:00;9.32;;;5.75;;
43817;SDS011;29868;47.360;18.984;2023-05-27T07:06:26;8.65;;;5.60;;
43817;SDS011;29868;47.360;18.984;2023-05-27T07:08:52;8.50;;;5.72;;
43817;SDS011;29868;47.360;18.984;2023-05-27T07:11:17;9.35;;;5.55;;
43817;SDS011;29868;47.360;18.984;2023-05-27T07:13:43;8.50;;;5.53;;
43817;SDS011;29868;47.360;18.984;2023-05-27T07:16:08;10.50;;;6.30;;
43817;SDS011;29868;47.360;18.984;2023-05-27T07:18:34;10.88;;;6.00;;
43817;SDS011;29868;47.360;18.984;2023-05-27T07:20:59;10.68;;;5.60;;
43817;SDS011;29868;47.360;18.984;2023-05-27T07:23:25;9.18;;;5.30;;
43817;SDS011;29868;47.360;18.984;2023-05-27T07:25:50;7.50;;;5.00;;
43817;SDS011;29868;47.360;18.984;2023-05-27T07:28:16;9.43;;;5.35;;
43817;SDS011;29868;47.360;18.984;2023-05-27T07:30:42;10.02;;;5.95;;
43817;SDS011;29868;47.360;18.984;2023-05-27T07:33:07;9.23;;;5.65;;
43817;SDS011;29868;47.360;18.984;2023-05-27T07:35:33;7.15;;;4.88;;
43817;SDS011;29868;47.360;18.984;2023-05-27T07:37:58;11.13;;;5.47;;
43817;SDS011;29868;47.360;18.984;2023-05-27T07:40:24;9.73;;;5.35;;
43817;SDS011;29868;47.360;18.984;2023-05-27T07:42:49;8.80;;;4.78;;
43817;SDS011;29868;47.360;18.984;2023-05-27T07:45:14;8.52;;;5.10;;
43817;SDS011;29868;47.360;18.984;2023-05-27T07:47:40;7.55;;;5.18;;
43817;SDS011;29868;47.360;18.984;2023-05-27T07:50:06;8.40;;;5.38;;
43817;SDS011;29868;47.360;18.984;2023-05-27T07:52:33;7.60;;;4.75;;
43817;SDS011;29868;47.360;18.984;2023-05-27T07:54:58;8.23;;;5.00;;
43817;SDS011;29868;47.360;18.984;2023-05-27T07:57:24;8.05;;;5.03;;
43817;SDS011;29868;47.360;18.984;2023-05-27T07:59:49;7.72;;;5.32;;
43817;SDS011;29868;47.360;18.984;2023-05-27T08:02:15;11.10;;;5.32;;
43817;SDS011;29868;47.360;18.984;2023-05-27T08:04:40;8.38;;;5.28;;
43817;SDS011;29868;47.360;18.984;2023-05-27T08:07:08;8.95;;;5.90;;
43817;SDS011;29868;47.360;18.984;2023-05-27T08:09:34;7.80;;;5.00;;
43817;SDS011;29868;47.360;18.984;2023-05-27T08:11:59;7.72;;;5.07;;
43817;SDS011;29868;47.360;18.984;2023-05-27T08:14:25;8.13;;;4.82;;
43817;SDS011;29868;47.360;18.984;2023-05-27T08:16:52;8.68;;;5.30;;
43817;SDS011;29868;47.360;18.984;2023-05-27T08:19:18;7.88;;;4.82;;
43817;SDS011;29868;47.360;18.984;2023-05-27T08:21:44;11.45;;;5.07;;
43817;SDS011;29868;47.360;18.984;2023-05-27T08:24:09;10.55;;;4.93;;
43817;SDS011;29868;47.360;18.984;2023-05-27T08:26:35;11.95;;;5.72;;
43817;SDS011;29868;47.360;18.984;2023-05-27T08:29:00;10.68;;;4.88;;
43817;SDS011;29868;47.360;18.984;2023-05-27T08:31:26;9.10;;;4.72;;
43817;SDS011;29868;47.360;18.984;2023-05-27T08:33:52;8.30;;;4.53;;
43817;SDS011;29868;47.360;18.984;2023-05-27T08:36:17;7.65;;;4.35;;
43817;SDS011;29868;47.360;18.984;2023-05-27T08:38:44;8.90;;;4.88;;
43817;SDS011;29868;47.360;18.984;2023-05-27T08:41:10;9.60;;;5.30;;
43817;SDS011;29868;47.360;18.984;2023-05-27T08:43:36;8.02;;;4.82;;
43817;SDS011;29868;47.360;18.984;2023-05-27T08:46:03;9.50;;;5.10;;
43817;SDS011;29868;47.360;18.984;2023-05-27T08:48:29;8.50;;;4.60;;
43817;SDS011;29868;47.360;18.984;2023-05-27T08:50:54;7.70;;;4.70;;
43817;SDS011;29868;47.360;18.984;2023-05-27T08:53:20;8.55;;;4.80;;
43817;SDS011;29868;47.360;18.984;2023-05-27T08:55:48;7.80;;;4.50;;
43817;SDS011;29868;47.360;18.984;2023-05-27T08:58:16;7.88;;;4.70;;
43817;SDS011;29868;47.360;18.984;2023-05-27T09:00:43;7.72;;;4.53;;
43817;SDS011;29868;47.360;18.984;2023-05-27T09:03:09;7.07;;;4.60;;
43817;SDS011;29868;47.360;18.984;2023-05-27T09:05:34;7.78;;;5.28;;
43817;SDS011;29868;47.360;18.984;2023-05-27T09:08:00;7.70;;;4.63;;
43817;SDS011;29868;47.360;18.984;2023-05-27T09:10:35;7.75;;;4.80;;
43817;SDS011;29868;47.360;18.984;2023-05-27T09:13:04;8.90;;;4.78;;
43817;SDS011;29868;47.360;18.984;2023-05-27T09:15:33;10.63;;;4.63;;
43817;SDS011;29868;47.360;18.984;2023-05-27T09:17:59;8.00;;;4.50;;
43817;SDS011;29868;47.360;18.984;2023-05-27T09:20:27;11.52;;;5.15;;
43817;SDS011;29868;47.360;18.984;2023-05-27T09:23:00;7.20;;;4.85;;
43817;SDS011;29868;47.360;18.984;2023-05-27T09:25:27;8.30;;;4.80;;
43817;SDS011;29868;47.360;18.984;2023-05-27T09:27:53;8.00;;;5.22;;
43817;SDS011;29868;47.360;18.984;2023-05-27T09:30:20;9.75;;;5.50;;
43817;SDS011;29868;47.360;18.984;2023-05-27T09:32:46;7.95;;;5.00;;
43817;SDS011;29868;47.360;18.984;2023-05-27T09:35:13;8.48;;;4.75;;
43817;SDS011;29868;47.360;18.984;2023-05-27T09:37:39;6.82;;;4.63;;
43817;SDS011;29868;47.360;18.984;2023-05-27T09:40:06;8.05;;;4.78;;
43817;SDS011;29868;47.360;18.984;2023-05-27T09:42:39;8.45;;;5.15;;
43817;SDS011;29868;47.360;18.984;2023-05-27T09:45:14;9.43;;;4.75;;
43817;SDS011;29868;47.360;18.984;2023-05-27T09:47:50;8.95;;;5.50;;
43817;SDS011;29868;47.360;18.984;2023-05-27T09:50:17;8.02;;;4.60;;
43817;SDS011;29868;47.360;18.984;2023-05-27T09:52:45;7.05;;;4.75;;
43817;SDS011;29868;47.360;18.984;2023-05-27T09:55:11;8.43;;;4.80;;
43817;SDS011;29868;47.360;18.984;2023-05-27T09:57:41;7.78;;;5.10;;
43817;SDS011;29868;47.360;18.984;2023-05-27T10:00:08;9.68;;;4.95;;
43817;SDS011;29868;47.360;18.984;2023-05-27T10:02:39;8.20;;;5.35;;
43817;SDS011;29868;47.360;18.984;2023-05-27T10:05:06;9.38;;;5.07;;
43817;SDS011;29868;47.360;18.984;2023-05-27T10:07:42;7.38;;;4.57;;
43817;SDS011;29868;47.360;18.984;2023-05-27T10:10:10;9.77;;;5.10;;
43817;SDS011;29868;47.360;18.984;2023-05-27T10:12:38;13.23;;;4.70;;
43817;SDS011;29868;47.360;18.984;2023-05-27T10:15:04;10.55;;;4.63;;
43817;SDS011;29868;47.360;18.984;2023-05-27T10:17:46;10.80;;;5.13;;
43817;SDS011;29868;47.360;18.984;2023-05-27T10:23:08;9.98;;;5.30;;
43817;SDS011;29868;47.360;18.984;2023-05-27T10:25:36;8.75;;;5.35;;
43817;SDS011;29868;47.360;18.984;2023-05-27T10:28:03;8.35;;;5.00;;
43817;SDS011;29868;47.360;18.984;2023-05-27T10:30:28;8.90;;;5.38;;
43817;SDS011;29868;47.360;18.984;2023-05-27T10:32:53;7.95;;;5.10;;
43817;SDS011;29868;47.360;18.984;2023-05-27T10:35:19;7.30;;;4.82;;
43817;SDS011;29868;47.360;18.984;2023-05-27T10:37:50;7.05;;;4.65;;
43817;SDS011;29868;47.360;18.984;2023-05-27T10:40:23;7.80;;;4.97;;
43817;SDS011;29868;47.360;18.984;2023-05-27T10:42:57;8.10;;;4.95;;
43817;SDS011;29868;47.360;18.984;2023-05-27T10:45:31;6.88;;;4.75;;
43817;SDS011;29868;47.360;18.984;2023-05-27T10:47:58;8.45;;;5.25;;
43817;SDS011;29868;47.360;18.984;2023-05-27T10:50:24;8.93;;;5.28;;
43817;SDS011;29868;47.360;18.984;2023-05-27T10:52:58;7.70;;;4.70;;
43817;SDS011;29868;47.360;18.984;2023-05-27T10:55:24;8.38;;;5.00;;
43817;SDS011;29868;47.360;18.984;2023-05-27T10:57:50;8.07;;;5.22;;
43817;SDS011;29868;47.360;18.984;2023-05-27T11:00:16;9.45;;;5.00;;
43817;SDS011;29868;47.360;18.984;2023-05-27T11:02:45;7.55;;;4.85;;
43817;SDS011;29868;47.360;18.984;2023-05-27T11:05:13;7.60;;;4.90;;
43817;SDS011;29868;47.360;18.984;2023-05-27T11:07:40;12.45;;;4.90;;
43817;SDS011;29868;47.360;18.984;2023-05-27T11:10:07;9.77;;;4.97;;
43817;SDS011;29868;47.360;18.984;2023-05-27T11:12:33;7.88;;;4.70;;
43817;SDS011;29868;47.360;18.984;2023-05-27T11:14:59;6.55;;;4.72;;
43817;SDS011;29868;47.360;18.984;2023-05-27T11:17:25;9.07;;;5.38;;
43817;SDS011;29868;47.360;18.984;2023-05-27T11:19:50;9.70;;;5.65;;
43817;SDS011;29868;47.360;18.984;2023-05-27T11:22:17;9.57;;;5.15;;
43817;SDS011;29868;47.360;18.984;2023-05-27T11:24:43;8.98;;;4.72;;
43817;SDS011;29868;47.360;18.984;2023-05-27T11:27:23;8.18;;;4.75;;
43817;SDS011;29868;47.360;18.984;2023-05-27T11:29:50;8.85;;;5.35;;
43817;SDS011;29868;47.360;18.984;2023-05-27T11:32:17;9.13;;;5.78;;
43817;SDS011;29868;47.360;18.984;2023-05-27T11:34:43;9.98;;;5.43;;
43817;SDS011;29868;47.360;18.984;2023-05-27T11:37:11;9.52;;;5.05;;
43817;SDS011;29868;47.360;18.984;2023-05-27T11:39:37;9.38;;;5.05;;
43817;SDS011;29868;47.360;18.984;2023-05-27T11:42:05;8.68;;;5.38;;
43817;SDS011;29868;47.360;18.984;2023-05-27T11:44:34;6.18;;;4.53;;
43817;SDS011;29868;47.360;18.984;2023-05-27T11:46:59;9.63;;;5.18;;
43817;SDS011;29868;47.360;18.984;2023-05-27T11:49:25;7.78;;;4.68;;
43817;SDS011;29868;47.360;18.984;2023-05-27T11:51:54;8.32;;;4.97;;
43817;SDS011;29868;47.360;18.984;2023-05-27T11:54:25;7.72;;;5.22;;
43817;SDS011;29868;47.360;18.984;2023-05-27T11:56:52;8.70;;;5.07;;
43817;SDS011;29868;47.360;18.984;2023-05-27T11:59:20;8.75;;;4.90;;
43817;SDS011;29868;47.360;18.984;2023-05-27T12:01:47;7.45;;;5.10;;
43817;SDS011;29868;47.360;18.984;2023-05-27T12:04:13;8.80;;;5.07;;
43817;SDS011;29868;47.360;18.984;2023-05-27T12:06:38;9.05;;;5.00;;
43817;SDS011;29868;47.360;18.984;2023-05-27T12:09:06;8.63;;;4.97;;
43817;SDS011;29868;47.360;18.984;2023-05-27T12:11:33;9.10;;;4.85;;
43817;SDS011;29868;47.360;18.984;2023-05-27T12:14:02;8.55;;;4.70;;
43817;SDS011;29868;47.360;18.984;2023-05-27T12:16:28;7.70;;;4.65;;
43817;SDS011;29868;47.360;18.984;2023-05-27T12:18:54;8.02;;;5.05;;
43817;SDS011;29868;47.360;18.984;2023-05-27T12:21:20;8.45;;;4.85;;
43817;SDS011;29868;47.360;18.984;2023-05-27T12:23:45;7.95;;;4.90;;
43817;SDS011;29868;47.360;18.984;2023-05-27T12:26:13;7.47;;;4.75;;
43817;SDS011;29868;47.360;18.984;2023-05-27T12:28:39;7.43;;;4.70;;
43817;SDS011;29868;47.360;18.984;2023-05-27T12:31:05;9.27;;;4.82;;
43817;SDS011;29868;47.360;18.984;2023-05-27T12:33:31;7.82;;;5.03;;
43817;SDS011;29868;47.360;18.984;2023-05-27T12:35:57;8.82;;;5.25;;
43817;SDS011;29868;47.360;18.984;2023-05-27T12:38:23;8.00;;;4.95;;
43817;SDS011;29868;47.360;18.984;2023-05-27T12:40:48;8.93;;;4.93;;
43817;SDS011;29868;47.360;18.984;2023-05-27T12:43:14;8.82;;;4.78;;
43817;SDS011;29868;47.360;18.984;2023-05-27T12:45:40;10.18;;;4.80;;
43817;SDS011;29868;47.360;18.984;2023-05-27T12:48:06;6.72;;;4.65;;
43817;SDS011;29868;47.360;18.984;2023-05-27T12:50:31;7.68;;;5.10;;
43817;SDS011;29868;47.360;18.984;2023-05-27T12:52:57;7.70;;;4.97;;
43817;SDS011;29868;47.360;18.984;2023-05-27T12:55:24;7.68;;;5.38;;
43817;SDS011;29868;47.360;18.984;2023-05-27T12:57:50;7.57;;;4.88;;
43817;SDS011;29868;47.360;18.984;2023-05-27T13:00:18;8.75;;;5.03;;
43817;SDS011;29868;47.360;18.984;2023-05-27T13:02:44;7.38;;;5.00;;
43817;SDS011;29868;47.360;18.984;2023-05-27T13:05:14;9.95;;;4.80;;
43817;SDS011;29868;47.360;18.984;2023-05-27T13:07:40;10.48;;;5.53;;
43817;SDS011;29868;47.360;18.984;2023-05-27T13:10:17;9.73;;;5.03;;
43817;SDS011;29868;47.360;18.984;2023-05-27T13:12:46;8.88;;;5.10;;
43817;SDS011;29868;47.360;18.984;2023-05-27T13:15:12;8.02;;;5.18;;
43817;SDS011;29868;47.360;18.984;2023-05-27T13:17:38;8.85;;;4.57;;
43817;SDS011;29868;47.360;18.984;2023-05-27T13:20:03;7.18;;;4.90;;
43817;SDS011;29868;47.360;18.984;2023-05-27T13:22:29;8.40;;;5.15;;
43817;SDS011;29868;47.360;18.984;2023-05-27T13:24:54;7.38;;;5.07;;
43817;SDS011;29868;47.360;18.984;2023-05-27T13:27:21;6.57;;;4.75;;
43817;SDS011;29868;47.360;18.984;2023-05-27T13:29:46;8.15;;;5.22;;
43817;SDS011;29868;47.360;18.984;2023-05-27T13:32:12;9.25;;;5.50;;
43817;SDS011;29868;47.360;18.984;2023-05-27T13:34:38;7.60;;;4.97;;
43817;SDS011;29868;47.360;18.984;2023-05-27T13:37:04;9.60;;;5.82;;
43817;SDS011;29868;47.360;18.984;2023-05-27T13:39:29;10.23;;;4.90;;
43817;SDS011;29868;47.360;18.984;2023-05-27T13:41:55;9.00;;;5.00;;
43817;SDS011;29868;47.360;18.984;2023-05-27T13:44:21;8.65;;;5.05;;
43817;SDS011;29868;47.360;18.984;2023-05-27T13:46:47;7.85;;;5.20;;
43817;SDS011;29868;47.360;18.984;2023-05-27T13:49:13;8.30;;;4.97;;
43817;SDS011;29868;47.360;18.984;2023-05-27T13:51:42;8.23;;;5.50;;
43817;SDS011;29868;47.360;18.984;2023-05-27T13:54:09;8.90;;;5.50;;
43817;SDS011;29868;47.360;18.984;2023-05-27T13:56:35;7.50;;;5.35;;
43817;SDS011;29868;47.360;18.984;2023-05-27T13:59:00;8.20;;;5.40;;
43817;SDS011;29868;47.360;18.984;2023-05-27T14:01:28;8.27;;;5.80;;
43817;SDS011;29868;47.360;18.984;2023-05-27T14:03:54;11.25;;;5.97;;
43817;SDS011;29868;47.360;18.984;2023-05-27T14:06:19;7.97;;;5.43;;
43817;SDS011;29868;47.360;18.984;2023-05-27T14:08:45;8.13;;;5.90;;
43817;SDS011;29868;47.360;18.984;2023-05-27T14:11:10;8.55;;;5.82;;
43817;SDS011;29868;47.360;18.984;2023-05-27T14:13:36;11.52;;;5.88;;
43817;SDS011;29868;47.360;18.984;2023-05-27T14:16:01;8.95;;;5.85;;
43817;SDS011;29868;47.360;18.984;2023-05-27T14:18:27;8.60;;;5.25;;
43817;SDS011;29868;47.360;18.984;2023-05-27T14:20:53;10.35;;;5.93;;
43817;SDS011;29868;47.360;18.984;2023-05-27T14:23:18;8.32;;;5.63;;
43817;SDS011;29868;47.360;18.984;2023-05-27T14:25:44;8.70;;;6.03;;
43817;SDS011;29868;47.360;18.984;2023-05-27T14:28:10;9.30;;;6.00;;
43817;SDS011;29868;47.360;18.984;2023-05-27T14:30:35;8.65;;;5.13;;